Forsyth, Illinois
Current Conditions -  °F | °C
As of 12:54 AM on Wednesday 26 Nov 2014 (Local Time) from KDEC Reporting Station
Clear Clear  
Wind Chill: 23°   Ceiling: Unl
Heat Index: 23°   Visibility: 7mi
Dew Point: 22°   Wind: 0mph
Humidity: 96%   Direction: NA
Pressure: 30.15"   Gusts: NA
Location:  39.93°N, 88.95°W
Report Text: KDEC 260654Z AUTO 00000KT 7SM CLR M05/M06 A3015 RMK AO2 SLP219 I1001 T10501056 TSNO
Loading
Personal Weather Stations






























Interactive Weather Map New forecast layout! Learn more

10-Day Weather Forecast

Advertisements
Track Severe Weather on mobile